Time;durP1;ratioP1;P1;durP2;ratioP2;P2;SDS_P1;SDS_P2;PMS_P1;PMS_P2;Temp;Humidity;BMP_temperature;BMP_pressure;BME280_temperature;BME280_humidity;BME280_pressure;Samples;Min_cycle;Max_cycle;Signal;HPM_P1;HPM_P2
2022/01/20 00:01:48;;;;;;;64.63;27.93;;;-0.50;71.10;;;-0.94;54.57;95633.84;5008614;28;20476;-57
2022/01/20 00:04:25;;;;;;;64.13;28.50;;;-0.50;71.10;;;-0.96;54.83;95633.03;5008692;28;20454;-56
2022/01/20 00:07:28;;;;;;;72.23;32.23;;;-0.50;71.90;;;-0.98;54.44;95640.00;5007856;28;20776;-58
2022/01/20 00:26:48;;;;;;;51.90;26.73;;;-0.80;71.70;;;-1.19;55.03;95632.06;5007415;28;20457;-56
2022/01/20 00:29:23;;;;;;;75.03;30.47;;;-0.80;71.50;;;-1.22;54.86;95621.84;5005731;28;20881;-56
2022/01/20 00:32:04;;;;;;;59.17;25.30;;;-0.80;71.50;;;-1.22;54.98;95627.00;5008773;28;20468;-57
2022/01/20 00:34:53;;;;;;;55.20;26.20;;;-0.80;71.70;;;-1.22;54.83;95615.81;5008809;28;20463;-57
2022/01/20 00:37:21;;;;;;;53.43;25.67;;;-0.80;72.00;;;-1.22;55.63;95621.84;5007898;28;20489;-57
2022/01/20 00:39:48;;;;;;;70.23;27.03;;;-0.80;72.80;;;-1.23;55.63;95619.31;5009745;28;20458;-54
2022/01/20 00:42:17;;;;;;;60.63;26.93;;;-0.80;72.40;;;-1.23;55.03;95622.72;5008559;28;20480;-55
2022/01/20 00:44:44;;;;;;;65.77;27.90;;;-0.80;72.40;;;-1.24;55.34;95618.44;5008262;28;20474;-55
2022/01/20 00:47:12;;;;;;;68.10;28.10;;;-0.80;72.60;;;-1.24;55.57;95615.88;5008476;28;20489;-55
2022/01/20 00:49:39;;;;;;;64.10;28.90;;;-0.80;72.40;;;-1.25;55.56;95609.03;5008598;28;20454;-55
2022/01/20 00:52:07;;;;;;;50.00;23.10;;;-0.80;72.40;;;-1.26;55.73;95615.09;5008677;28;20969;-54
2022/01/20 00:54:34;;;;;;;63.00;25.40;;;-0.90;72.70;;;-1.27;55.71;95613.38;5008675;28;20524;-55
2022/01/20 00:57:02;;;;;;;63.43;27.60;;;-0.90;72.60;;;-1.29;55.60;95608.28;5011084;28;20473;-57
2022/01/20 00:59:30;;;;;;;57.13;27.20;;;-0.90;72.30;;;-1.30;55.23;95603.16;5011940;28;20488;-55
2022/01/20 01:01:58;;;;;;;62.87;28.03;;;-0.90;72.70;;;-1.30;55.91;95606.59;5011791;28;20474;-56
2022/01/20 01:04:27;;;;;;;52.27;24.17;;;-0.90;73.20;;;-1.29;55.20;95610.03;5011676;28;20461;-55
2022/01/20 01:07:13;;;;;;;74.87;27.37;;;-0.90;72.80;;;-1.31;55.42;95606.66;5010164;28;20800;-57
2022/01/20 01:09:41;;;;;;;71.93;28.20;;;-0.90;73.10;;;-1.32;55.38;95608.41;5012045;28;20473;-55
2022/01/20 01:12:14;;;;;;;71.23;29.53;;;-0.90;73.10;;;-1.33;55.94;95603.28;5008837;28;20480;-57
2022/01/20 01:14:47;;;;;;;62.17;26.70;;;-0.90;73.30;;;-1.33;55.67;95603.28;5011813;28;20499;-55
2022/01/20 01:20:18;;;;;;;62.83;27.40;;;-0.90;73.00;;;-1.35;55.58;95590.44;5011794;28;20429;-55
2022/01/20 01:22:46;;;;;;;61.00;27.77;;;-0.90;73.40;;;-1.31;55.66;95591.19;5011803;28;20460;-58
2022/01/20 01:25:14;;;;;;;67.43;29.40;;;-0.90;73.40;;;-1.32;55.84;95585.19;5008541;28;20841;-55
2022/01/20 01:27:44;;;;;;;71.60;27.07;;;-0.90;73.50;;;-1.32;55.29;95577.44;5011385;28;20449;-56
2022/01/20 01:32:57;;;;;;;61.63;30.27;;;-0.90;74.40;;;-1.32;55.81;95576.56;5009565;28;20468;-57
2022/01/20 01:35:27;;;;;;;67.57;28.50;;;-0.90;73.90;;;-1.32;55.48;95574.84;5011798;28;20484;-57
2022/01/20 01:40:41;;;;;;;56.53;29.00;;;-0.90;73.90;;;-1.31;56.23;95565.38;5011939;28;20457;-56
2022/01/20 01:43:17;;;;;;;72.10;27.67;;;-0.90;74.00;;;-1.31;56.38;95560.22;5011555;28;20521;-55
2022/01/20 01:45:46;;;;;;;64.30;28.30;;;-0.90;74.40;;;-1.34;55.55;95555.16;5012146;28;21051;-56
2022/01/20 01:48:13;;;;;;;64.63;27.20;;;-1.00;73.50;;;-1.37;55.73;95552.66;5011407;28;20469;-56
2022/01/20 01:50:41;;;;;;;55.80;25.40;;;-1.00;73.60;;;-1.40;55.45;95558.75;5012051;28;20469;-55
2022/01/20 01:53:08;;;;;;;58.57;25.90;;;-1.00;74.00;;;-1.41;56.08;95554.53;5011678;28;20860;-57
2022/01/20 01:55:35;;;;;;;70.63;26.17;;;-1.00;74.00;;;-1.46;56.13;95557.25;5011031;28;20513;-56
2022/01/20 01:58:03;;;;;;;64.73;25.47;;;-1.00;74.20;;;-1.51;56.42;95543.63;5011126;28;20496;-56
2022/01/20 02:00:31;;;;;;;44.93;22.63;;;-1.10;74.50;;;-1.55;56.36;95536.91;5011621;28;20870;-55
2022/01/20 02:03:00;;;;;;;63.43;24.90;;;-1.10;74.30;;;-1.53;56.16;95539.44;5011232;28;20453;-56
2022/01/20 02:05:28;;;;;;;60.37;25.90;;;-1.10;74.20;;;-1.52;55.54;95541.09;5011417;28;20481;-56
2022/01/20 02:08:24;;;;;;;54.33;24.63;;;-1.10;74.00;;;-1.51;55.71;95542.81;5007619;28;20463;-54
2022/01/20 02:19:11;;;;;;;60.67;26.43;;;-1.10;74.30;;;-1.55;55.99;95518.84;5007849;28;20492;-56
2022/01/20 02:21:48;;;;;;;55.20;24.97;;;-1.10;74.10;;;-1.53;55.84;95521.38;5010299;28;20477;-55
2022/01/20 02:24:15;;;;;;;48.53;23.60;;;-1.10;74.10;;;-1.52;55.92;95526.50;5011198;28;20491;-56
2022/01/20 02:26:42;;;;;;;62.53;25.23;;;-1.10;74.20;;;-1.54;55.56;95515.38;5010834;28;20469;-56
2022/01/20 02:29:10;;;;;;;51.97;25.30;;;-1.10;73.80;;;-1.54;56.03;95514.53;5009964;28;21230;-56
2022/01/20 02:31:37;;;;;;;61.20;24.57;;;-1.10;74.10;;;-1.54;55.27;95511.94;5011030;28;20481;-56
2022/01/20 02:34:04;;;;;;;48.17;24.70;;;-1.10;73.90;;;-1.55;55.68;95515.41;5010400;28;20456;-57
2022/01/20 02:36:34;;;;;;;55.50;24.90;;;-1.10;74.10;;;-1.56;56.16;95504.25;5010728;28;20470;-54
2022/01/20 02:39:09;;;;;;;55.03;27.50;;;-1.20;74.00;;;-1.57;55.50;95502.56;5010385;28;21075;-55
2022/01/20 02:47:12;;;;;;;55.87;24.50;;;-1.20;74.00;;;-1.59;55.97;95503.53;5009383;28;20524;-57
2022/01/20 02:49:40;;;;;;;51.90;24.27;;;-1.20;74.00;;;-1.59;56.02;95498.38;5010437;28;20449;-56
2022/01/20 02:52:07;;;;;;;60.60;26.57;;;-1.20;74.00;;;-1.60;55.95;95502.66;5007398;28;21032;-54
2022/01/20 02:54:36;;;;;;;52.33;24.03;;;-1.20;74.10;;;-1.63;55.75;95498.47;5009890;28;20581;-55
2022/01/20 02:57:04;;;;;;;69.83;25.23;;;-1.20;74.00;;;-1.63;55.62;95500.19;5010453;28;20473;-55
2022/01/20 02:59:34;;;;;;;66.20;24.93;;;-1.20;74.00;;;-1.65;56.10;95494.25;5005280;28;20497;-55
2022/01/20 03:02:01;;;;;;;60.20;24.33;;;-1.20;74.00;;;-1.65;55.16;95494.25;5010283;28;21037;-56
2022/01/20 03:04:30;;;;;;;64.83;25.90;;;-1.20;73.80;;;-1.69;55.59;95487.50;5008436;28;20537;-56
2022/01/20 03:06:57;;;;;;;49.87;23.20;;;-1.20;74.10;;;-1.72;55.34;95491.03;5008964;28;20552;-57
2022/01/20 03:09:24;;;;;;;54.47;23.97;;;-1.30;73.60;;;-1.77;56.58;95492.91;5008024;28;20461;-57
2022/01/20 03:11:54;;;;;;;52.43;23.57;;;-1.30;74.30;;;-1.79;56.07;95501.59;5007671;28;20505;-54
2022/01/20 03:14:21;;;;;;;45.93;23.83;;;-1.30;74.30;;;-1.81;55.76;95494.75;5005962;28;20462;-55
2022/01/20 03:16:49;;;;;;;57.27;24.30;;;-1.30;74.30;;;-1.82;56.60;95487.06;5008043;28;20500;-55
2022/01/20 03:19:17;;;;;;;58.90;25.83;;;-1.40;74.90;;;-1.88;56.44;95480.38;5007228;28;21819;-56
2022/01/20 03:21:44;;;;;;;49.53;25.00;;;-1.40;74.60;;;-1.81;56.40;95486.19;5006291;28;20990;-56
2022/01/20 03:24:12;;;;;;;60.97;25.97;;;-1.40;74.50;;;-1.82;55.65;95487.91;5007608;28;20477;-54
2022/01/20 03:26:39;;;;;;;58.47;26.50;;;-1.40;74.40;;;-1.81;55.79;95479.28;5009314;28;20497;-56
2022/01/20 03:29:09;;;;;;;56.13;26.37;;;-1.40;74.30;;;-1.82;55.87;95480.16;5008608;28;20458;-57
2022/01/20 03:31:37;;;;;;;46.77;22.80;;;-1.40;74.20;;;-1.84;55.90;95471.66;5007608;28;20465;-56
2022/01/20 03:34:06;;;;;;;47.13;24.60;;;-1.40;74.20;;;-1.84;56.53;95483.72;5009027;28;20460;-56
2022/01/20 03:36:33;;;;;;;54.33;24.93;;;-1.40;74.50;;;-1.85;56.03;95474.28;5009002;28;20624;-56
2022/01/20 03:39:00;;;;;;;49.37;23.90;;;-1.40;74.50;;;-1.87;56.63;95463.19;5007372;28;20493;-56
2022/01/20 03:41:28;;;;;;;56.93;25.83;;;-1.40;74.50;;;-1.89;55.78;95467.53;5009715;28;21104;-56
2022/01/20 03:43:55;;;;;;;58.90;24.47;;;-1.40;74.40;;;-1.90;56.16;95468.44;5006852;28;20454;-56
2022/01/20 03:46:24;;;;;;;62.67;24.70;;;-1.50;74.20;;;-1.91;55.91;95470.16;5003445;28;20481;-56
2022/01/20 03:48:52;;;;;;;66.30;24.43;;;-1.50;74.50;;;-1.91;55.60;95465.00;5008179;28;20536;-56
2022/01/20 03:51:21;;;;;;;64.30;26.43;;;-1.50;74.20;;;-1.92;56.09;95458.19;5005409;28;20486;-57
2022/01/20 03:53:50;;;;;;;58.90;27.20;;;-1.50;74.00;;;-1.94;55.58;95454.78;5008640;28;20446;-57
2022/01/20 03:56:17;;;;;;;48.53;24.73;;;-1.50;74.10;;;-1.95;56.58;95454.84;5008557;28;20474;-56
2022/01/20 03:58:44;;;;;;;49.67;20.07;;;-1.50;74.50;;;-1.96;56.57;95463.47;5007225;28;20872;-55
2022/01/20 04:01:12;;;;;;;40.63;17.20;;;-1.50;74.80;;;-1.95;56.59;95471.16;5008787;28;20469;-55
2022/01/20 04:03:40;;;;;;;33.13;16.60;;;-1.50;74.80;;;-1.91;56.38;95459.00;5005783;28;20461;-53
2022/01/20 04:06:08;;;;;;;46.63;20.57;;;-1.50;74.80;;;-1.90;55.68;95461.53;5005603;28;20469;-56
2022/01/20 04:08:37;;;;;;;48.87;18.03;;;-1.50;74.40;;;-1.89;55.68;95460.66;5008387;28;20453;-56
2022/01/20 04:11:07;;;;;;;42.87;16.30;;;-1.50;74.30;;;-1.87;55.73;95461.44;5005296;28;20470;-55
2022/01/20 04:13:35;;;;;;;43.43;16.20;;;-1.40;74.00;;;-1.86;55.98;95463.13;5007600;28;20457;-56
2022/01/20 04:16:11;;;;;;;39.23;17.90;;;-1.40;73.80;;;-1.87;55.80;95453.69;5006762;28;20476;-57
2022/01/20 04:18:40;;;;;;;40.80;19.63;;;-1.40;73.60;;;-1.86;55.31;95460.56;5005195;28;20856;-56
2022/01/20 04:21:07;;;;;;;48.43;16.10;;;-1.40;73.80;;;-1.88;55.38;95457.16;5008733;28;20480;-58
2022/01/20 04:23:35;;;;;;;36.80;16.03;;;-1.40;73.50;;;-1.90;56.08;95450.41;5006802;28;20453;-56
2022/01/20 04:26:02;;;;;;;45.40;18.47;;;-1.50;73.70;;;-1.92;55.81;95452.16;5008013;28;21107;-56
2022/01/20 04:28:29;;;;;;;47.53;20.67;;;-1.50;73.60;;;-1.94;55.88;95454.78;5008038;28;20540;-55
2022/01/20 04:30:57;;;;;;;47.20;22.23;;;-1.50;73.80;;;-1.94;56.31;95454.78;5006680;28;20585;-57
2022/01/20 04:33:24;;;;;;;43.73;19.30;;;-1.50;73.80;;;-1.94;55.88;95457.38;5006401;28;20451;-57
2022/01/20 04:35:53;;;;;;;60.70;23.97;;;-1.50;73.80;;;-1.95;55.15;95450.53;5005773;28;20480;-56
2022/01/20 04:38:20;;;;;;;42.80;21.17;;;-1.50;73.70;;;-1.96;56.00;95456.59;5005959;28;20997;-57
2022/01/20 04:40:48;;;;;;;50.03;20.27;;;-1.50;73.90;;;-1.98;55.29;95461.78;5005253;28;20484;-58
2022/01/20 04:43:15;;;;;;;35.90;19.67;;;-1.50;73.80;;;-1.99;56.20;95456.69;5006669;28;20458;-56
2022/01/20 04:45:48;;;;;;;45.93;21.33;;;-1.50;73.80;;;-2.01;56.23;95461.06;5003128;28;20481;-56
2022/01/20 04:48:23;;;;;;;51.10;20.50;;;-1.60;74.20;;;-2.02;56.22;95456.78;5005790;28;20457;-58
2022/01/20 04:59:05;;;;;;;46.53;17.87;;;-1.60;74.10;;;-2.02;56.14;95455.03;5005631;28;20699;-57
2022/01/20 05:01:33;;;;;;;45.53;21.70;;;-1.60;73.70;;;-2.04;55.51;95456.00;5004836;28;20626;-56
2022/01/20 05:04:02;;;;;;;42.40;22.17;;;-1.60;74.20;;;-2.04;55.36;95456.00;5006457;28;20460;-57
2022/01/20 05:06:31;;;;;;;41.27;19.27;;;-1.60;74.30;;;-2.02;55.43;95451.63;5003055;28;20498;-55
2022/01/20 05:08:59;;;;;;;46.73;21.50;;;-1.60;74.40;;;-2.05;56.01;95449.16;5007519;28;20481;-57
2022/01/20 05:11:26;;;;;;;37.83;18.77;;;-1.60;74.20;;;-2.06;56.19;95447.44;5007429;28;20886;-57
2022/01/20 05:13:54;;;;;;;40.47;18.03;;;-1.60;74.30;;;-2.05;56.20;95447.41;5008160;28;20927;-57
2022/01/20 05:16:24;;;;;;;50.57;21.93;;;-1.60;74.50;;;-2.03;56.57;95449.94;5008499;28;20958;-55
2022/01/20 05:18:51;;;;;;;42.93;16.67;;;-1.60;74.70;;;-2.03;55.78;95452.50;5008139;28;20485;-56
2022/01/20 05:21:18;;;;;;;46.37;19.43;;;-1.60;74.20;;;-2.05;55.90;95446.56;5008005;28;20474;-57
2022/01/20 05:23:47;;;;;;;43.17;20.53;;;-1.60;74.10;;;-2.05;56.47;95452.56;5007749;28;20469;-56
2022/01/20 05:26:14;;;;;;;61.37;21.87;;;-1.60;74.50;;;-2.05;56.14;95451.72;5008837;28;20893;-57
2022/01/20 05:28:42;;;;;;;32.13;14.90;;;-1.60;74.40;;;-2.06;56.90;95461.19;5008745;28;20878;-56
2022/01/20 05:31:09;;;;;;;28.73;12.20;;;-1.60;75.30;;;-2.07;56.47;95462.09;5007510;28;20489;-56
2022/01/20 05:33:37;;;;;;;31.50;14.67;;;-1.60;74.70;;;-2.05;56.08;95454.31;5007785;28;20469;-55
2022/01/20 05:36:05;;;;;;;26.37;11.87;;;-1.60;75.00;;;-2.05;55.92;95449.16;5008176;28;20473;-56
2022/01/20 05:38:32;;;;;;;33.47;13.33;;;-1.60;74.20;;;-2.04;55.80;95456.00;5008185;28;20545;-57
2022/01/20 05:41:01;;;;;;;27.77;12.00;;;-1.60;74.20;;;-2.03;55.06;95458.53;5007904;28;20492;-56
2022/01/20 05:43:28;;;;;;;30.97;13.47;;;-1.60;73.70;;;-2.01;55.22;95456.72;5011066;28;20464;-57
2022/01/20 05:45:56;;;;;;;32.60;14.43;;;-1.60;73.60;;;-1.99;55.11;95460.09;5009400;28;20506;-57
2022/01/20 05:48:33;;;;;;;41.30;17.37;;;-1.60;73.50;;;-1.97;54.90;95462.63;5011509;28;20455;-58
2022/01/20 05:51:00;;;;;;;33.60;16.97;;;-1.60;73.50;;;-1.96;54.94;95466.06;5007786;28;20551;-56
2022/01/20 05:53:28;;;;;;;41.23;14.57;;;-1.50;73.30;;;-1.96;54.95;95464.31;5010540;28;20477;-57
2022/01/20 05:55:55;;;;;;;44.37;15.60;;;-1.50;73.10;;;-1.94;54.60;95457.38;5008966;28;20819;-55
2022/01/20 05:58:24;;;;;;;35.07;14.20;;;-1.50;72.90;;;-1.92;54.75;95453.03;5009897;28;20449;-57
2022/01/20 06:00:51;;;;;;;29.00;15.00;;;-1.50;72.70;;;-1.89;55.07;95457.22;5009877;28;21032;-57
2022/01/20 06:03:37;;;;;;;31.13;16.37;;;-1.50;72.80;;;-1.84;55.09;95460.50;5009458;28;20997;-58
2022/01/20 06:06:05;;;;;;;38.07;19.33;;;-1.50;72.60;;;-1.78;54.69;95452.56;5009548;28;20672;-57
2022/01/20 06:08:32;;;;;;;41.83;19.90;;;-1.40;72.60;;;-1.69;54.35;95452.25;5005866;28;20512;-57
2022/01/20 06:11:00;;;;;;;48.97;20.97;;;-1.30;73.20;;;-1.57;54.79;95461.31;5008347;28;20473;-56
2022/01/20 06:13:28;;;;;;;52.63;21.20;;;-1.20;72.40;;;-1.38;54.25;95453.78;5007828;28;20453;-57
2022/01/20 06:15:56;;;;;;;43.73;21.17;;;-1.10;72.50;;;-1.11;54.25;95454.53;5009024;28;20473;-55
2022/01/20 06:18:23;;;;;;;37.27;18.83;;;-0.90;72.70;;;-0.81;54.04;95456.91;5009187;28;20458;-56
2022/01/20 06:20:51;;;;;;;50.63;18.47;;;-0.60;71.70;;;-0.48;53.23;95448.81;5008385;28;21008;-58
2022/01/20 06:23:18;;;;;;;40.60;19.97;;;-0.30;71.40;;;-0.08;52.83;95451.56;5002976;28;20464;-58
2022/01/20 06:25:46;;;;;;;35.93;18.77;;;0.00;71.10;;;0.42;52.73;95455.56;5005494;28;20481;-58
2022/01/20 06:28:13;;;;;;;48.10;19.97;;;0.40;70.50;;;0.88;51.46;95456.19;5007295;28;20836;-56
2022/01/20 06:30:42;;;;;;;40.33;17.87;;;0.90;68.90;;;1.36;49.96;95444.56;5007633;28;21016;-57
2022/01/20 06:33:09;;;;;;;39.47;17.53;;;1.30;67.30;;;1.92;50.84;95452.38;5006641;28;20481;-57
2022/01/20 06:35:36;;;;;;;38.93;18.00;;;1.90;68.60;;;2.45;48.62;95455.88;5008806;28;21005;-57
2022/01/20 06:38:04;;;;;;;48.07;18.73;;;2.40;66.00;;;2.90;47.74;95461.41;5006894;28;20481;-55
2022/01/20 06:40:32;;;;;;;46.27;18.17;;;2.90;63.40;;;3.27;47.43;95460.38;5008532;28;20496;-57
2022/01/20 06:43:00;;;;;;;41.23;17.90;;;3.20;61.80;;;3.71;46.46;95457.13;5009939;28;20468;-56
2022/01/20 06:45:27;;;;;;;45.53;19.00;;;3.60;60.30;;;4.24;45.53;95454.22;5008443;28;20485;-57
2022/01/20 06:47:56;;;;;;;50.37;21.53;;;4.10;59.40;;;4.83;44.76;95449.09;5008394;28;20865;-58
2022/01/20 06:50:23;;;;;;;38.80;20.20;;;4.70;58.90;;;5.39;44.08;95436.19;5007480;28;20504;-58
2022/01/20 06:52:51;;;;;;;48.77;19.03;;;5.20;57.50;;;5.78;41.75;95433.78;5010640;28;20458;-55
2022/01/20 06:55:18;;;;;;;31.73;16.33;;;5.70;54.30;;;6.10;42.28;95431.78;5006625;28;20473;-57
2022/01/20 06:57:45;;;;;;;33.23;16.33;;;6.10;54.60;;;6.59;43.27;95432.97;5007079;28;20820;-57
2022/01/20 07:00:15;;;;;;;50.70;18.77;;;6.60;55.30;;;7.17;42.71;95438.66;5009932;28;20596;-56
2022/01/20 07:02:43;;;;;;;38.70;17.50;;;7.30;55.60;;;7.78;40.92;95438.81;5008846;28;21094;-55
2022/01/20 07:05:12;;;;;;;38.10;18.10;;;8.00;53.00;;;8.38;41.72;95437.13;5009724;28;20445;-57
2022/01/20 07:07:40;;;;;;;38.03;17.60;;;8.60;53.70;;;8.90;40.24;95437.69;5007455;28;20975;-56
2022/01/20 07:10:08;;;;;;;35.33;17.90;;;9.20;52.00;;;9.42;39.78;95445.16;5010556;28;20450;-57
2022/01/20 07:12:36;;;;;;;53.97;19.37;;;9.70;50.70;;;9.92;38.69;95440.38;5009051;28;20992;-56
2022/01/20 07:15:03;;;;;;;46.57;21.20;;;10.20;48.60;;;10.43;37.23;95446.03;5009258;28;20463;-57
2022/01/20 07:17:31;;;;;;;39.43;21.73;;;10.70;46.30;;;10.88;37.30;95445.84;5006185;28;20582;-56
2022/01/20 07:19:58;;;;;;;36.17;20.53;;;11.20;46.00;;;11.29;37.53;95455.53;5009660;28;20504;-57
2022/01/20 07:22:27;;;;;;;39.93;19.63;;;11.60;47.20;;;11.67;36.80;95450.59;5010319;28;20976;-56
2022/01/20 07:24:54;;;;;;;48.23;20.53;;;12.00;45.50;;;12.06;35.86;95447.28;5009257;28;20992;-56
2022/01/20 07:27:22;;;;;;;46.13;23.57;;;12.50;44.00;;;12.47;35.47;95433.06;5008687;28;20670;-57
2022/01/20 07:29:49;;;;;;;41.93;22.53;;;13.00;43.70;;;12.84;35.71;95437.66;5010184;28;20457;-57
2022/01/20 07:32:16;;;;;;;45.73;24.87;;;13.40;44.50;;;13.14;33.53;95430.53;5007593;28;20490;-58
2022/01/20 07:34:43;;;;;;;55.87;27.80;;;13.70;41.10;;;13.39;33.15;95429.13;5008565;28;20450;-57
2022/01/20 07:37:11;;;;;;;52.97;28.53;;;13.90;41.00;;;13.71;33.00;95427.06;5008806;28;20589;-57
2022/01/20 07:39:41;;;;;;;58.27;25.93;;;14.20;40.70;;;13.99;33.00;95422.63;5009711;28;20497;-59
2022/01/20 07:42:09;;;;;;;45.90;24.73;;;14.40;40.80;;;14.19;32.31;95420.72;5008037;28;20473;-58
2022/01/20 07:44:36;;;;;;;50.50;25.20;;;14.50;39.80;;;14.34;31.97;95419.22;5009467;28;20458;-58
2022/01/20 07:47:05;;;;;;;43.60;24.10;;;14.60;39.60;;;14.46;31.65;95429.59;5008549;28;20835;-56
2022/01/20 07:49:32;;;;;;;56.90;24.57;;;14.70;39.20;;;14.57;31.49;95429.38;5008317;28;20973;-57
2022/01/20 07:51:59;;;;;;;52.27;24.20;;;14.70;39.20;;;14.70;31.38;95435.16;5008540;28;20480;-56
2022/01/20 07:54:26;;;;;;;37.13;21.80;;;14.70;38.80;;;14.83;30.48;95428.66;5010394;28;20473;-57
2022/01/20 07:56:55;;;;;;;37.60;20.70;;;14.80;37.40;;;14.98;30.59;95432.44;5009141;28;20484;-57
2022/01/20 07:59:24;;;;;;;43.27;24.10;;;15.00;37.90;;;15.13;30.55;95434.50;5009054;28;20456;-57
2022/01/20 08:01:52;;;;;;;42.27;20.67;;;15.10;37.70;;;15.29;29.68;95431.16;5007138;28;20536;-57
2022/01/20 08:04:19;;;;;;;32.90;14.13;;;15.30;36.60;;;15.52;29.16;95424.38;5007506;28;20977;-57
2022/01/20 08:06:46;;;;;;;34.70;16.07;;;15.50;35.60;;;15.82;29.08;95429.31;5007259;28;20477;-58
2022/01/20 08:09:14;;;;;;;27.87;14.13;;;15.70;35.30;;;16.10;28.73;95428.13;5008637;28;20469;-57
2022/01/20 08:11:42;;;;;;;38.63;15.23;;;15.90;35.30;;;16.34;26.33;95429.19;5007446;28;21091;-57
2022/01/20 08:14:10;;;;;;;32.13;15.70;;;16.10;33.20;;;16.43;27.19;95427.41;5006351;28;20986;-58
2022/01/20 08:16:38;;;;;;;36.33;16.00;;;16.30;32.60;;;16.53;28.28;95438.72;5009390;28;20992;-57
2022/01/20 08:19:05;;;;;;;39.00;16.07;;;16.30;34.80;;;16.71;28.11;95435.09;5006850;28;20453;-57
2022/01/20 08:21:32;;;;;;;41.50;17.90;;;16.40;35.00;;;16.92;27.83;95421.38;5007446;28;20493;-58
2022/01/20 08:24:00;;;;;;;33.93;16.33;;;16.60;34.50;;;17.18;27.38;95422.03;5005874;28;20830;-57
2022/01/20 08:26:27;;;;;;;34.33;15.67;;;16.90;34.50;;;17.41;27.47;95410.69;5010355;28;20470;-58
2022/01/20 08:28:54;;;;;;;42.90;18.00;;;17.10;34.20;;;17.68;27.35;95416.66;5006040;28;20484;-58
2022/01/20 08:31:23;;;;;;;54.47;16.87;;;17.30;34.20;;;17.92;27.63;95407.78;5005051;28;20957;-56
2022/01/20 08:33:50;;;;;;;38.70;16.13;;;17.60;34.40;;;18.09;27.28;95404.06;5009053;28;20463;-58
2022/01/20 08:36:18;;;;;;;35.03;15.80;;;17.80;33.40;;;18.33;26.94;95409.44;5008785;28;20457;-57
2022/01/20 08:38:45;;;;;;;37.37;15.40;;;18.00;33.30;;;18.57;27.10;95401.28;5008632;28;20449;-57
2022/01/20 08:41:12;;;;;;;40.73;15.70;;;18.20;33.40;;;18.84;26.11;95390.28;5009199;28;20600;-58
2022/01/20 08:43:40;;;;;;;30.90;14.77;;;18.50;32.90;;;19.08;26.45;95391.97;5010185;28;20531;-58
2022/01/20 08:46:08;;;;;;;31.27;14.70;;;18.70;32.70;;;19.29;25.45;95389.44;5003651;28;20473;-58
2022/01/20 08:48:37;;;;;;;32.33;14.13;;;18.90;32.40;;;19.48;25.93;95398.75;4996710;28;20446;-58
2022/01/20 08:51:04;;;;;;;32.57;13.30;;;19.10;32.20;;;19.70;23.92;95397.03;5004141;28;20454;-58
2022/01/20 08:53:32;;;;;;;44.73;14.20;;;19.30;30.90;;;19.92;25.29;95393.66;5008542;28;20508;-57
2022/01/20 08:55:59;;;;;;;25.20;11.40;;;19.50;31.70;;;20.10;25.50;95390.59;5005107;28;20483;-58
2022/01/20 08:58:27;;;;;;;22.20;10.50;;;19.70;31.90;;;20.30;25.31;95385.50;5009201;28;20453;-58
2022/01/20 09:00:54;;;;;;;28.13;8.83;;;19.90;31.60;;;20.50;25.03;95383.06;5006825;28;20497;-57
2022/01/20 09:03:22;;;;;;;40.67;12.50;;;20.10;31.20;;;20.70;24.70;95386.78;5007503;28;20480;-56
2022/01/20 09:05:51;;;;;;;36.13;11.53;;;20.30;30.90;;;20.82;23.99;95384.47;5005605;28;20469;-58
2022/01/20 09:08:18;;;;;;;24.20;10.07;;;20.40;30.10;;;20.78;24.05;95378.63;5004024;28;20884;-58
2022/01/20 09:10:53;;;;;;;24.20;8.63;;;20.50;29.80;;;20.74;23.99;95379.22;5006544;28;20505;-57
2022/01/20 09:16:06;;;;;;;27.17;9.10;;;20.50;30.00;;;20.79;23.96;95379.50;5012811;28;20457;-58
2022/01/20 09:18:33;;;;;;;29.87;6.70;;;20.50;29.60;;;20.91;22.91;95379.78;5009846;28;20488;-58
2022/01/20 09:21:02;;;;;;;12.20;5.97;;;20.60;28.10;;;20.99;22.80;95376.16;5011936;28;20582;-58
2022/01/20 09:23:29;;;;;;;14.43;6.30;;;20.70;28.50;;;21.11;23.26;95372.75;5011469;28;20646;-56
2022/01/20 09:25:57;;;;;;;12.20;6.10;;;20.70;28.90;;;21.28;23.19;95367.94;5013555;28;20476;-56
2022/01/20 09:28:26;;;;;;;14.47;6.73;;;20.90;29.30;;;21.45;22.98;95368.50;5010573;28;20471;-57
2022/01/20 09:30:57;;;;;;;23.50;6.30;;;21.00;29.00;;;21.56;23.06;95366.34;5013263;28;20487;-57
2022/01/20 09:33:27;;;;;;;25.50;6.93;;;21.10;28.70;;;21.63;22.70;95351.16;5007761;28;20437;-58
2022/01/20 09:35:55;;;;;;;13.90;7.07;;;21.20;28.60;;;21.64;22.06;95350.09;5011978;28;20988;-58
2022/01/20 09:38:24;;;;;;;21.00;6.60;;;21.30;28.00;;;21.62;22.26;95347.63;5010610;28;20504;-59
2022/01/20 09:40:52;;;;;;;21.97;6.60;;;21.40;28.10;;;21.69;22.20;95345.00;5010232;28;20492;-58
2022/01/20 09:43:19;;;;;;;22.37;7.00;;;21.40;28.10;;;21.80;22.25;95333.72;5008759;28;20456;-56
2022/01/20 09:45:49;;;;;;;12.80;6.20;;;21.50;27.60;;;21.98;22.02;95340.41;5012746;28;20531;-55
2022/01/20 09:48:18;;;;;;;16.20;7.03;;;21.70;28.10;;;22.20;21.74;95330.41;5009869;28;20445;-57
2022/01/20 09:50:46;;;;;;;17.77;7.23;;;21.80;28.00;;;22.41;21.31;95332.13;5011980;28;20504;-56
2022/01/20 09:53:14;;;;;;;7.20;3.57;;;22.00;27.50;;;22.62;19.87;95314.22;5008958;28;20504;-57
2022/01/20 09:55:43;;;;;;;5.60;3.00;;;22.20;24.90;;;22.61;18.26;95315.28;5011657;28;20479;-57
2022/01/20 09:58:11;;;;;;;5.83;2.77;;;22.20;22.40;;;22.57;18.63;95309.47;5008459;28;20461;-57
2022/01/20 10:00:38;;;;;;;4.13;2.40;;;22.10;23.70;;;22.48;17.22;95299.97;5011322;28;20497;-57
2022/01/20 10:03:09;;;;;;;10.50;2.70;;;22.00;21.20;;;22.23;18.98;95294.31;5012874;28;21000;-57
2022/01/20 10:05:40;;;;;;;14.33;3.33;;;21.80;23.70;;;22.05;17.50;95287.69;5010667;28;21040;-59
2022/01/20 10:08:10;;;;;;;6.63;2.40;;;21.60;22.00;;;21.90;16.97;95282.47;5010493;28;20970;-58
2022/01/20 10:10:45;;;;;;;4.60;3.53;;;21.40;22.50;;;21.74;16.56;95280.97;5013733;28;20482;-59
2022/01/20 10:13:12;;;;;;;9.73;2.10;;;21.30;22.20;;;21.63;17.13;95285.03;5012506;28;20522;-59
2022/01/20 10:15:40;;;;;;;9.70;3.30;;;21.10;21.70;;;21.48;16.00;95266.41;5011678;28;20985;-57
2022/01/20 10:18:09;;;;;;;19.47;3.50;;;21.00;21.00;;;21.36;17.62;95262.63;5009548;28;20457;-58
2022/01/20 10:20:37;;;;;;;8.23;2.90;;;20.80;22.10;;;21.35;18.13;95265.50;5009442;28;20497;-57
2022/01/20 10:23:04;;;;;;;10.03;3.10;;;20.80;23.10;;;21.46;16.48;95252.41;5011081;28;20447;-59
2022/01/20 10:25:35;;;;;;;4.90;2.37;;;20.90;21.60;;;21.69;17.25;95261.16;5011083;28;20891;-58
2022/01/20 10:28:04;;;;;;;5.83;2.40;;;21.10;22.20;;;21.93;17.36;95246.44;5012320;28;20784;-59
2022/01/20 10:30:33;;;;;;;5.70;2.40;;;21.30;22.20;;;22.01;15.89;95251.59;5010029;28;20477;-57
2022/01/20 10:33:01;;;;;;;4.73;2.37;;;21.40;20.90;;;21.91;16.47;95237.78;5010221;28;20874;-58
2022/01/20 10:35:32;;;;;;;15.03;2.77;;;21.40;21.90;;;21.65;17.78;95244.69;5012605;28;20893;-57
2022/01/20 10:38:10;;;;;;;5.37;2.77;;;21.20;22.10;;;21.56;17.13;95232.50;5011197;28;20909;-57
2022/01/20 10:40:47;;;;;;;10.10;2.60;;;21.00;22.00;;;21.49;17.47;95235.16;5005989;28;20493;-58
2022/01/20 10:43:23;;;;;;;7.47;3.20;;;21.00;22.60;;;21.52;17.64;95228.56;5010467;28;20544;-58
2022/01/20 10:46:01;;;;;;;9.43;3.00;;;21.00;22.60;;;21.64;18.08;95230.50;5009509;28;20712;-58
2022/01/20 10:48:29;;;;;;;2.87;2.57;;;21.10;23.90;;;21.96;17.06;95228.09;5010605;28;20456;-57
2022/01/20 10:50:56;;;;;;;7.03;3.27;;;21.40;22.40;;;22.06;17.30;95224.22;5014617;28;20474;-57
2022/01/20 10:53:24;;;;;;;5.23;3.00;;;21.60;22.00;;;22.12;17.82;95218.88;5010994;28;20453;-58
2022/01/20 10:55:52;;;;;;;5.53;3.70;;;21.70;22.50;;;22.25;17.72;95222.63;5009694;28;20480;-58
2022/01/20 10:58:23;;;;;;;5.10;3.10;;;21.80;23.10;;;22.42;18.30;95207.81;5011957;28;20775;-58
2022/01/20 11:00:52;;;;;;;7.37;4.30;;;22.00;23.20;;;22.74;18.22;95202.63;5009476;28;20746;-58
2022/01/20 11:03:19;;;;;;;13.67;5.30;;;22.30;23.80;;;23.12;17.91;95193.97;5009245;28;20457;-57
2022/01/20 11:05:50;;;;;;;13.50;4.13;;;22.60;23.00;;;23.46;17.65;95189.31;5012857;28;20495;-58